Time;durP1;ratioP1;P1;durP2;ratioP2;P2;SDS_P1;SDS_P2;PMS_P1;PMS_P2;Temp;Humidity;BMP_temperature;BMP_pressure;BME280_temperature;BME280_humidity;BME280_pressure;Samples;Min_cycle;Max_cycle;Signal;HPM_P1;HPM_P2
2021/09/22 00:01:48;;;;;;;14.90;11.83;;;8.90;99.90;;;;;;6089576;23;21135;-85
2021/09/22 00:04:37;;;;;;;12.97;11.57;;;8.80;99.90;;;;;;6088686;23;20578;-84
2021/09/22 00:07:23;;;;;;;16.20;11.90;;;8.80;99.90;;;;;;6089117;23;20582;-84
2021/09/22 00:10:13;;;;;;;14.00;11.67;;;8.80;99.90;;;;;;6088238;23;20617;-84
2021/09/22 00:12:57;;;;;;;15.07;11.37;;;8.80;99.90;;;;;;6089579;23;20737;-84
2021/09/22 00:15:38;;;;;;;17.07;12.90;;;8.70;99.90;;;;;;6089655;23;20603;-84
2021/09/22 00:18:25;;;;;;;15.63;12.83;;;8.70;99.90;;;;;;6087872;23;20617;-84
2021/09/22 00:21:08;;;;;;;14.70;12.60;;;8.60;99.90;;;;;;6090672;22;20601;-84
2021/09/22 00:23:55;;;;;;;16.83;12.37;;;8.70;99.90;;;;;;6091461;23;20566;-84
2021/09/22 00:26:40;;;;;;;14.37;11.43;;;8.70;99.90;;;;;;6090041;23;20594;-84
2021/09/22 00:29:28;;;;;;;20.17;13.27;;;8.80;99.90;;;;;;6090557;23;21003;-84
2021/09/22 00:32:09;;;;;;;12.27;11.07;;;8.90;99.90;;;;;;6090859;23;20612;-84
2021/09/22 00:34:53;;;;;;;14.20;11.33;;;8.90;99.90;;;;;;6090669;22;20634;-84
2021/09/22 00:37:41;;;;;;;18.08;11.80;;;8.80;99.90;;;;;;6089557;23;21154;-84
2021/09/22 00:40:18;;;;;;;13.73;11.33;;;8.70;99.90;;;;;;6090758;23;20614;-83
2021/09/22 00:43:00;;;;;;;15.93;13.40;;;8.60;99.90;;;;;;6090795;23;20535;-84
2021/09/22 00:45:47;;;;;;;15.80;13.70;;;8.70;99.90;;;;;;6089268;23;20567;-84
2021/09/22 00:48:35;;;;;;;17.80;13.30;;;8.50;99.90;;;;;;6090079;23;20626;-84
2021/09/22 00:51:21;;;;;;;15.70;12.93;;;8.50;99.90;;;;;;6090579;23;21051;-83
2021/09/22 00:54:12;;;;;;;15.17;12.40;;;8.50;99.90;;;;;;6083933;23;20642;-84
2021/09/22 00:56:51;;;;;;;19.10;13.00;;;8.40;99.90;;;;;;6090248;23;20571;-84
2021/09/22 00:59:33;;;;;;;17.10;13.37;;;8.40;99.90;;;;;;6090599;23;20693;-84
2021/09/22 01:02:20;;;;;;;15.30;13.05;;;8.50;99.90;;;;;;6090010;23;20625;-84
2021/09/22 01:04:56;;;;;;;17.77;12.38;;;8.40;99.90;;;;;;6090186;22;20606;-83
2021/09/22 01:07:41;;;;;;;14.27;11.65;;;8.40;99.90;;;;;;6090547;23;20174;-84
2021/09/22 01:10:31;;;;;;;15.25;11.98;;;8.40;99.90;;;;;;6089592;23;20252;-84
2021/09/22 01:13:12;;;;;;;16.60;12.23;;;8.40;99.90;;;;;;6090798;23;20278;-84
2021/09/22 01:15:59;;;;;;;14.57;11.30;;;8.30;99.90;;;;;;6090351;23;20638;-84
2021/09/22 01:18:40;;;;;;;19.60;13.13;;;8.20;99.90;;;;;;6090267;23;20601;-83
2021/09/22 01:21:28;;;;;;;14.00;11.93;;;8.30;99.90;;;;;;6090644;23;20626;-84
2021/09/22 01:24:15;;;;;;;21.30;12.57;;;8.30;99.90;;;;;;6090564;23;20274;-84
2021/09/22 01:27:00;;;;;;;15.63;11.63;;;8.30;99.90;;;;;;6090134;23;20160;-83
2021/09/22 01:29:47;;;;;;;14.25;11.52;;;8.40;99.90;;;;;;6088999;23;20194;-83
2021/09/22 01:32:34;;;;;;;13.50;11.10;;;8.40;99.90;;;;;;6088757;23;20269;-83
2021/09/22 01:35:22;;;;;;;13.30;10.85;;;8.20;99.90;;;;;;6088958;23;20230;-82
2021/09/22 01:38:13;;;;;;;15.27;12.67;;;8.20;99.90;;;;;;6090224;23;20218;-83
2021/09/22 01:41:02;;;;;;;11.98;10.05;;;8.30;99.90;;;;;;6089085;23;20591;-83
2021/09/22 01:43:49;;;;;;;13.70;10.23;;;8.40;99.90;;;;;;6088895;23;20237;-84
2021/09/22 01:46:36;;;;;;;13.57;10.50;;;8.30;99.90;;;;;;6088533;23;20555;-83
2021/09/22 01:49:23;;;;;;;15.70;13.23;;;8.30;99.90;;;;;;6090293;23;20553;-83
2021/09/22 01:52:10;;;;;;;16.13;11.60;;;8.30;99.90;;;;;;6088893;23;20171;-84
2021/09/22 01:54:59;;;;;;;13.65;11.95;;;8.30;99.90;;;;;;6088741;23;20610;-83
2021/09/22 01:57:46;;;;;;;14.80;11.60;;;8.30;99.90;;;;;;6088518;23;20190;-84
2021/09/22 02:00:33;;;;;;;14.27;11.67;;;8.20;99.90;;;;;;6088802;23;20235;-84
2021/09/22 02:03:32;;;;;;;15.52;12.52;;;8.20;99.90;;;;;;6089023;23;20591;-83
2021/09/22 02:06:19;;;;;;;17.52;11.82;;;8.20;99.90;;;;;;6086235;23;20178;-82
2021/09/22 02:09:06;;;;;;;14.98;11.43;;;8.10;99.90;;;;;;6088689;23;20264;-83
2021/09/22 02:11:55;;;;;;;15.15;11.65;;;8.20;99.90;;;;;;6089231;23;20550;-83
2021/09/22 02:14:42;;;;;;;14.75;11.88;;;8.30;99.90;;;;;;6089325;23;20194;-82
2021/09/22 02:17:28;;;;;;;13.85;11.07;;;8.30;99.90;;;;;;6089477;23;20582;-82
2021/09/22 02:20:15;;;;;;;14.18;12.32;;;8.30;99.90;;;;;;6088825;23;20218;-82
2021/09/22 02:23:02;;;;;;;14.27;11.40;;;8.10;99.90;;;;;;6089202;23;20270;-82
2021/09/22 02:25:49;;;;;;;12.88;11.27;;;8.10;99.90;;;;;;6088791;23;20214;-83
2021/09/22 02:28:37;;;;;;;19.02;12.27;;;8.10;99.90;;;;;;6087931;23;20190;-82
2021/09/22 02:31:24;;;;;;;16.48;12.95;;;8.10;99.90;;;;;;6088787;23;20194;-82
2021/09/22 02:34:11;;;;;;;15.60;12.20;;;8.20;99.90;;;;;;6088906;23;20700;-83
2021/09/22 02:37:09;;;;;;;20.95;14.35;;;8.20;99.90;;;;;;6087441;23;20206;-83
2021/09/22 02:39:56;;;;;;;13.63;11.15;;;8.00;99.90;;;;;;6088932;23;20285;-83
2021/09/22 02:42:45;;;;;;;15.70;12.52;;;8.00;99.90;;;;;;6090110;23;20261;-83
2021/09/22 02:45:33;;;;;;;15.35;12.15;;;8.00;99.90;;;;;;6090128;23;20270;-83
2021/09/22 02:48:20;;;;;;;14.60;12.43;;;8.00;99.90;;;;;;6089393;23;20233;-83
2021/09/22 02:51:07;;;;;;;13.75;11.55;;;8.00;99.90;;;;;;6088973;23;20214;-83
2021/09/22 02:53:54;;;;;;;14.30;11.05;;;8.00;99.90;;;;;;6089010;23;20573;-83
2021/09/22 02:56:41;;;;;;;14.02;11.45;;;8.00;99.90;;;;;;6088047;23;20234;-82
2021/09/22 02:59:28;;;;;;;17.35;12.70;;;7.90;99.90;;;;;;6088757;23;20256;-83
2021/09/22 03:02:16;;;;;;;14.77;12.63;;;8.00;99.90;;;;;;6089251;23;20183;-83
2021/09/22 03:04:58;;;;;;;17.42;12.93;;;8.00;99.90;;;;;;6090149;23;20177;-83
2021/09/22 03:07:45;;;;;;;16.42;13.52;;;8.10;99.90;;;;;;6088464;23;20277;-83
2021/09/22 03:10:32;;;;;;;15.85;13.00;;;8.00;99.90;;;;;;6088644;23;20720;-82
2021/09/22 03:13:19;;;;;;;14.75;11.70;;;8.00;99.90;;;;;;6090015;23;20214;-83
2021/09/22 03:16:08;;;;;;;14.75;12.52;;;7.80;99.90;;;;;;6085081;23;20289;-82
2021/09/22 03:18:53;;;;;;;17.27;12.80;;;7.90;99.90;;;;;;6089420;23;20218;-82
2021/09/22 03:21:40;;;;;;;16.55;12.52;;;8.00;99.90;;;;;;6089780;23;20197;-82
2021/09/22 03:24:27;;;;;;;16.67;14.00;;;7.90;99.90;;;;;;6088719;23;20218;-83
2021/09/22 03:27:14;;;;;;;14.90;13.35;;;7.90;99.90;;;;;;6088111;23;20664;-82
2021/09/22 03:30:01;;;;;;;17.42;14.23;;;7.90;99.90;;;;;;6088297;23;20210;-82
2021/09/22 03:32:46;;;;;;;14.30;11.38;;;7.80;99.90;;;;;;6090070;23;20164;-82
2021/09/22 03:35:34;;;;;;;17.90;13.60;;;7.80;99.90;;;;;;6088014;23;20238;-82
2021/09/22 03:38:21;;;;;;;18.20;13.23;;;7.80;99.90;;;;;;6087719;23;20265;-82
2021/09/22 03:41:08;;;;;;;15.02;13.40;;;7.90;99.90;;;;;;6088254;23;20233;-82
2021/09/22 03:43:55;;;;;;;14.45;10.95;;;7.90;99.90;;;;;;6089416;23;20201;-82
2021/09/22 03:46:33;;;;;;;17.83;13.82;;;7.70;99.90;;;;;;6089291;23;20174;-82
2021/09/22 03:49:20;;;;;;;16.92;12.25;;;7.70;99.90;;;;;;6089577;23;20656;-81
2021/09/22 03:52:08;;;;;;;16.92;13.88;;;7.80;99.90;;;;;;6088627;23;20191;-82
2021/09/22 03:54:50;;;;;;;21.15;14.13;;;7.90;99.90;;;;;;6090117;23;20173;-82
2021/09/22 03:57:36;;;;;;;16.55;12.98;;;7.90;99.90;;;;;;6088501;23;20261;-82
2021/09/22 04:00:23;;;;;;;18.27;14.13;;;7.80;99.90;;;;;;6089404;23;20265;-81
2021/09/22 04:03:10;;;;;;;19.98;14.55;;;7.90;99.90;;;;;;6089726;23;20260;-82
2021/09/22 04:05:57;;;;;;;18.00;14.40;;;7.90;99.90;;;;;;6089311;23;20214;-82
2021/09/22 04:08:45;;;;;;;19.50;14.10;;;7.80;99.90;;;;;;6088182;23;20225;-82
2021/09/22 04:11:32;;;;;;;20.23;15.10;;;7.90;99.90;;;;;;6089428;23;20191;-82
2021/09/22 04:14:12;;;;;;;18.40;14.80;;;7.80;99.90;;;;;;6089274;23;20800;-83
2021/09/22 04:16:45;;;;;;;18.33;14.15;;;7.90;99.90;;;;;;6088792;23;20826;-82
2021/09/22 04:19:33;;;;;;;15.82;14.13;;;7.90;99.90;;;;;;6089279;23;20543;-82
2021/09/22 04:22:16;;;;;;;18.88;16.17;;;7.80;99.90;;;;;;6088972;23;20182;-83
2021/09/22 04:24:59;;;;;;;20.67;15.60;;;7.90;99.90;;;;;;6089850;23;20167;-83
2021/09/22 04:27:40;;;;;;;22.65;16.45;;;8.00;99.90;;;;;;6089364;23;20179;-82
2021/09/22 04:30:22;;;;;;;19.77;14.77;;;8.10;99.90;;;;;;6090454;23;20633;-83
2021/09/22 04:33:07;;;;;;;17.23;13.90;;;8.10;99.90;;;;;;6090701;23;20178;-82
2021/09/22 04:35:49;;;;;;;21.00;15.00;;;8.00;99.90;;;;;;6089620;23;20198;-82
2021/09/22 04:38:36;;;;;;;17.33;14.15;;;7.80;99.90;;;;;;6088657;23;20193;-82
2021/09/22 04:41:13;;;;;;;18.35;14.43;;;7.80;99.90;;;;;;6090699;23;20175;-81
2021/09/22 04:43:50;;;;;;;19.40;14.27;;;7.90;99.90;;;;;;6090898;23;20163;-82
2021/09/22 04:46:37;;;;;;;16.60;12.95;;;7.90;99.90;;;;;;6088805;23;20566;-82
2021/09/22 04:49:24;;;;;;;17.63;13.75;;;7.80;99.90;;;;;;6088819;23;21190;-82
2021/09/22 04:51:58;;;;;;;21.90;14.75;;;7.80;99.90;;;;;;6090326;23;20240;-81
2021/09/22 04:54:32;;;;;;;21.77;14.57;;;7.70;99.90;;;;;;6090724;23;20209;-82
2021/09/22 04:57:05;;;;;;;21.60;15.35;;;7.70;99.90;;;;;;6089882;23;20190;-81
2021/09/22 04:59:52;;;;;;;19.90;15.20;;;7.60;99.90;;;;;;6088831;23;20210;-82
2021/09/22 05:02:28;;;;;;;20.85;15.00;;;7.70;99.90;;;;;;6090461;23;20249;-81
2021/09/22 05:05:03;;;;;;;17.15;13.70;;;7.70;99.90;;;;;;6090358;23;20177;-82
2021/09/22 05:07:38;;;;;;;19.38;15.10;;;7.60;99.90;;;;;;6088789;23;20167;-81
2021/09/22 05:10:14;;;;;;;17.98;14.30;;;7.60;99.90;;;;;;6089966;23;20637;-82
2021/09/22 05:12:53;;;;;;;16.77;12.57;;;7.70;99.90;;;;;;6087997;23;20179;-82
2021/09/22 05:15:34;;;;;;;18.40;12.82;;;7.70;99.90;;;;;;6090071;23;20171;-82
2021/09/22 05:18:08;;;;;;;15.77;13.68;;;7.70;99.90;;;;;;6088955;23;20166;-81
2021/09/22 05:20:45;;;;;;;19.17;14.55;;;7.60;99.90;;;;;;6088810;23;20179;-81
2021/09/22 05:23:16;;;;;;;18.60;14.85;;;7.60;99.90;;;;;;6089085;23;20206;-81
2021/09/22 05:25:52;;;;;;;21.05;14.80;;;7.60;99.90;;;;;;6088879;23;20206;-81
2021/09/22 05:28:40;;;;;;;21.95;13.52;;;7.60;99.90;;;;;;6086501;23;20293;-81
2021/09/22 05:31:19;;;;;;;25.13;16.05;;;7.50;99.90;;;;;;6089052;23;20195;-81
2021/09/22 05:34:06;;;;;;;28.45;15.10;;;7.60;99.90;;;;;;6087854;23;20210;-81
2021/09/22 05:36:44;;;;;;;26.75;14.00;;;7.60;99.90;;;;;;6087712;23;20708;-81
2021/09/22 05:39:25;;;;;;;22.05;13.32;;;7.60;99.90;;;;;;6088792;22;20218;-82
2021/09/22 05:42:01;;;;;;;19.50;13.40;;;7.60;99.90;;;;;;6084291;23;20221;-82
2021/09/22 05:44:34;;;;;;;18.58;14.10;;;7.60;99.90;;;;;;6086076;23;20229;-81
2021/09/22 05:47:11;;;;;;;17.67;13.13;;;7.60;99.90;;;;;;6089265;23;20238;-80
2021/09/22 05:49:44;;;;;;;20.90;13.98;;;7.70;99.90;;;;;;6090100;23;20189;-80
2021/09/22 05:52:17;;;;;;;19.75;13.85;;;7.70;99.90;;;;;;6090336;23;20163;-81
2021/09/22 05:54:54;;;;;;;18.15;14.10;;;7.70;99.90;;;;;;6090290;23;20269;-81
2021/09/22 05:57:25;;;;;;;19.90;13.93;;;7.80;99.90;;;;;;6089141;23;20209;-81
2021/09/22 06:00:04;;;;;;;23.08;14.15;;;7.80;99.90;;;;;;6076213;23;20281;-82
2021/09/22 06:02:50;;;;;;;27.17;16.33;;;7.90;99.90;;;;;;6087201;23;20257;-82
2021/09/22 06:05:24;;;;;;;23.33;15.43;;;8.10;99.90;;;;;;6088570;23;20672;-82
2021/09/22 06:07:56;;;;;;;20.55;14.88;;;8.20;99.90;;;;;;6088820;23;20175;-83
2021/09/22 06:10:33;;;;;;;23.80;16.08;;;8.20;99.90;;;;;;6089782;23;20225;-82
2021/09/22 06:13:03;;;;;;;20.55;14.90;;;8.30;99.90;;;;;;6090042;23;20189;-82
2021/09/22 06:15:37;;;;;;;27.33;14.73;;;8.30;99.90;;;;;;6089557;23;20190;-82
2021/09/22 06:18:13;;;;;;;19.90;15.02;;;8.40;99.90;;;;;;6089217;23;20269;-82
2021/09/22 06:20:49;;;;;;;25.67;15.40;;;8.40;99.90;;;;;;6090136;23;20170;-82
2021/09/22 06:23:24;;;;;;;17.20;13.75;;;8.40;99.90;;;;;;6089253;23;21068;-82
2021/09/22 06:25:58;;;;;;;17.80;14.90;;;8.60;99.90;;;;;;6088167;22;20174;-83
2021/09/22 06:28:34;;;;;;;25.10;15.63;;;8.70;99.90;;;;;;6089424;23;20614;-83
2021/09/22 06:31:06;;;;;;;22.77;14.67;;;8.90;99.90;;;;;;6090023;23;20601;-82
2021/09/22 06:33:47;;;;;;;22.10;15.30;;;9.00;99.90;;;;;;6089757;23;20614;-83
2021/09/22 06:36:24;;;;;;;21.37;14.73;;;9.10;99.90;;;;;;6089171;23;20571;-82
2021/09/22 06:39:05;;;;;;;24.23;14.80;;;9.20;99.90;;;;;;6089589;23;20582;-83
2021/09/22 06:41:42;;;;;;;18.33;15.57;;;9.30;99.90;;;;;;6089890;23;20535;-83
2021/09/22 06:44:16;;;;;;;18.93;13.90;;;9.40;99.90;;;;;;6089865;23;20579;-82
2021/09/22 06:46:54;;;;;;;19.63;15.37;;;9.40;99.90;;;;;;6089633;23;20634;-83
2021/09/22 06:49:25;;;;;;;25.30;15.67;;;9.60;99.90;;;;;;6089990;23;20567;-82
2021/09/22 06:52:06;;;;;;;20.10;15.03;;;9.60;99.90;;;;;;6089820;23;20594;-83
2021/09/22 06:54:38;;;;;;;17.73;14.30;;;9.70;99.90;;;;;;6089894;23;20570;-83
2021/09/22 06:57:13;;;;;;;23.67;16.60;;;9.70;99.90;;;;;;6088269;23;20638;-83
2021/09/22 06:59:48;;;;;;;17.00;13.77;;;9.90;99.90;;;;;;6089832;23;20668;-83
2021/09/22 07:02:34;;;;;;;20.93;16.27;;;10.10;99.90;;;;;;6089950;23;20539;-84
2021/09/22 07:05:08;;;;;;;24.23;16.17;;;10.30;99.90;;;;;;6089887;22;20581;-83
2021/09/22 07:07:46;;;;;;;22.17;17.10;;;10.30;99.90;;;;;;6089468;23;20606;-83
2021/09/22 07:10:22;;;;;;;21.20;16.00;;;10.50;99.90;;;;;;6089689;23;20562;-83
2021/09/22 07:13:04;;;;;;;25.67;16.73;;;10.70;99.90;;;;;;6089557;23;20570;-84
2021/09/22 07:15:39;;;;;;;27.47;16.50;;;10.70;99.90;;;;;;6083217;23;20720;-84
2021/09/22 07:18:19;;;;;;;21.40;15.90;;;10.90;99.90;;;;;;6089407;23;20606;-83
2021/09/22 07:21:00;;;;;;;25.60;17.70;;;10.90;99.90;;;;;;6090083;23;20535;-84
2021/09/22 07:23:38;;;;;;;27.67;17.23;;;11.00;99.90;;;;;;6088130;23;20678;-83
2021/09/22 07:26:22;;;;;;;22.70;16.30;;;11.10;99.90;;;;;;6088590;23;20583;-83
2021/09/22 07:28:59;;;;;;;24.33;17.43;;;11.20;99.90;;;;;;6088550;23;21221;-83
2021/09/22 07:31:32;;;;;;;21.70;16.70;;;11.30;99.90;;;;;;6089036;23;20637;-83
2021/09/22 07:34:17;;;;;;;20.80;14.83;;;11.40;99.90;;;;;;6089080;23;20613;-84
2021/09/22 07:36:50;;;;;;;24.13;16.70;;;11.50;99.90;;;;;;6088510;23;20563;-84
2021/09/22 07:39:28;;;;;;;21.70;16.63;;;11.60;99.90;;;;;;6089507;23;20582;-84
2021/09/22 07:42:12;;;;;;;23.57;16.80;;;11.60;99.90;;;;;;6089627;22;20656;-84
2021/09/22 07:44:47;;;;;;;21.67;16.67;;;11.60;99.90;;;;;;6089827;23;20650;-84
2021/09/22 07:47:31;;;;;;;20.23;15.80;;;11.80;99.90;;;;;;6089522;23;20586;-84
2021/09/22 07:50:09;;;;;;;18.60;13.53;;;11.90;99.30;;;;;;6089958;23;20543;-84
2021/09/22 07:52:45;;;;;;;19.80;14.57;;;11.90;98.80;;;;;;6089586;23;20587;-83
2021/09/22 07:55:19;;;;;;;18.60;14.93;;;12.00;98.10;;;;;;6088848;23;20932;-84
2021/09/22 07:58:00;;;;;;;18.47;14.13;;;12.20;98.10;;;;;;6089326;23;20621;-83
2021/09/22 08:00:33;;;;;;;18.20;14.40;;;12.30;97.70;;;;;;6089949;23;20560;-83
2021/09/22 08:03:10;;;;;;;15.50;13.00;;;12.30;97.60;;;;;;6089416;23;20544;-84
2021/09/22 08:05:44;;;;;;;15.90;14.20;;;12.40;97.10;;;;;;6087792;23;20712;-83
2021/09/22 08:08:17;;;;;;;17.20;14.93;;;12.50;96.10;;;;;;6089294;23;20582;-83
2021/09/22 08:10:55;;;;;;;18.13;14.47;;;12.50;96.60;;;;;;6087454;23;20591;-84
2021/09/22 08:13:30;;;;;;;18.40;14.47;;;12.60;96.80;;;;;;6088612;22;20602;-84
2021/09/22 08:16:03;;;;;;;16.13;14.43;;;12.70;96.20;;;;;;6086230;23;20624;-84
2021/09/22 08:18:45;;;;;;;19.87;14.30;;;12.90;96.00;;;;;;6089247;23;20624;-84
2021/09/22 08:21:17;;;;;;;17.87;14.77;;;12.90;96.50;;;;;;6089216;23;20585;-83
2021/09/22 08:23:51;;;;;;;15.87;13.40;;;13.10;96.20;;;;;;6088834;23;20602;-84
2021/09/22 08:26:28;;;;;;;16.77;12.70;;;13.30;95.80;;;;;;6089228;23;20574;-83
2021/09/22 08:29:00;;;;;;;17.13;13.83;;;13.50;95.30;;;;;;6089246;22;20675;-83
2021/09/22 08:31:30;;;;;;;15.70;14.07;;;13.50;95.50;;;;;;6088912;23;20574;-83
2021/09/22 08:34:08;;;;;;;25.53;14.60;;;13.70;94.70;;;;;;6088838;23;20597;-84
2021/09/22 08:36:45;;;;;;;13.10;11.70;;;13.70;94.40;;;;;;6088562;23;20616;-84
2021/09/22 08:39:32;;;;;;;13.10;11.80;;;13.80;93.10;;;;;;6088939;23;20585;-84
2021/09/22 08:42:06;;;;;;;11.83;10.63;;;13.80;92.40;;;;;;6090183;23;20859;-84
2021/09/22 08:44:43;;;;;;;13.20;11.80;;;13.80;91.70;;;;;;6090186;23;20594;-84
2021/09/22 08:47:28;;;;;;;11.43;10.33;;;13.80;91.30;;;;;;6090117;23;20561;-84
2021/09/22 08:50:04;;;;;;;12.17;10.97;;;13.90;91.60;;;;;;6090279;23;20621;-84
2021/09/22 08:52:37;;;;;;;13.30;11.23;;;14.10;91.50;;;;;;6090727;23;20574;-84
2021/09/22 08:55:09;;;;;;;14.83;12.27;;;14.10;91.90;;;;;;6090077;23;20678;-84
2021/09/22 08:57:43;;;;;;;15.37;12.70;;;14.20;92.10;;;;;;6090118;23;20705;-84
2021/09/22 09:00:18;;;;;;;14.87;13.07;;;14.30;93.80;;;;;;6088870;23;20578;-84
2021/09/22 09:02:55;;;;;;;16.93;12.67;;;14.50;92.50;;;;;;6088718;23;20590;-84
2021/09/22 09:05:34;;;;;;;14.50;11.57;;;14.40;93.50;;;;;;6087803;23;20570;-84
2021/09/22 09:08:16;;;;;;;12.93;11.50;;;14.40;92.30;;;;;;6085969;23;20655;-82
2021/09/22 09:10:55;;;;;;;12.97;11.37;;;14.60;91.60;;;;;;6088688;23;20536;-84
2021/09/22 09:13:32;;;;;;;13.30;10.50;;;14.70;90.10;;;;;;6088304;23;20597;-83
2021/09/22 09:16:14;;;;;;;12.23;10.40;;;14.90;90.60;;;;;;6087343;23;20657;-84
2021/09/22 09:18:48;;;;;;;10.83;9.73;;;15.00;85.80;;;;;;6088166;23;20910;-84
2021/09/22 09:21:22;;;;;;;11.40;10.27;;;15.10;86.20;;;;;;6088966;23;20614;-84
2021/09/22 09:24:00;;;;;;;14.60;10.50;;;15.00;86.50;;;;;;6089423;23;21100;-83
2021/09/22 09:26:38;;;;;;;9.23;8.33;;;15.10;85.70;;;;;;6086359;23;20629;-85
2021/09/22 09:29:18;;;;;;;10.20;9.10;;;15.20;85.20;;;;;;6088441;22;20607;-84
2021/09/22 09:32:10;;;;;;;13.33;9.07;;;15.30;87.10;;;;;;6085331;23;20601;-85
2021/09/22 09:35:02;;;;;;;9.00;8.20;;;15.20;85.80;;;;;;6088725;23;21159;-84
2021/09/22 09:37:37;;;;;;;9.10;8.23;;;15.30;86.70;;;;;;6089021;23;20609;-84
2021/09/22 09:40:22;;;;;;;10.87;9.57;;;15.50;84.40;;;;;;6088966;22;21193;-83
2021/09/22 09:42:57;;;;;;;9.27;8.37;;;15.60;82.60;;;;;;6082222;23;20618;-83
2021/09/22 09:45:40;;;;;;;9.50;8.60;;;15.60;82.70;;;;;;6089847;22;20570;-84
2021/09/22 09:48:21;;;;;;;10.60;9.10;;;15.60;82.30;;;;;;6089095;23;20605;-85
2021/09/22 09:51:03;;;;;;;9.20;7.73;;;15.60;84.40;;;;;;6088980;22;20612;-84
2021/09/22 09:53:38;;;;;;;9.00;8.10;;;15.50;87.30;;;;;;6087969;23;20578;-84
2021/09/22 09:56:20;;;;;;;10.23;9.23;;;15.50;88.20;;;;;;6090336;23;20541;-83
2021/09/22 09:58:58;;;;;;;9.67;8.77;;;15.70;86.40;;;;;;6089352;22;20619;-84
2021/09/22 10:01:42;;;;;;;9.87;8.87;;;15.80;85.70;;;;;;6089770;23;20859;-85
2021/09/22 10:04:16;;;;;;;9.83;8.83;;;15.90;86.90;;;;;;6089821;22;20602;-85
2021/09/22 10:06:54;;;;;;;10.63;7.60;;;16.10;84.10;;;;;;6088358;23;20562;-85
2021/09/22 10:09:29;;;;;;;8.13;6.70;;;16.20;84.50;;;;;;6089810;23;20583;-85
2021/09/22 10:12:04;;;;;;;8.07;7.20;;;16.20;85.20;;;;;;6089567;23;20579;-85
2021/09/22 10:14:44;;;;;;;12.73;8.90;;;16.20;85.00;;;;;;6088348;23;20985;-85
2021/09/22 10:17:33;;;;;;;9.00;8.10;;;16.20;85.30;;;;;;6088226;23;20610;-85
2021/09/22 10:20:08;;;;;;;11.40;7.60;;;16.50;82.90;;;;;;6090071;22;20577;-84
2021/09/22 10:22:46;;;;;;;8.60;7.60;;;16.50;82.80;;;;;;6089386;22;20611;-84
2021/09/22 10:25:23;;;;;;;8.10;7.30;;;16.40;83.30;;;;;;6089777;23;20639;-85
2021/09/22 10:28:13;;;;;;;9.50;8.37;;;16.50;83.00;;;;;;6089954;22;20615;-87
2021/09/22 10:31:15;;;;;;;9.57;8.60;;;16.40;83.90;;;;;;6089398;23;20643;-87
2021/09/22 10:33:49;;;;;;;8.90;8.00;;;16.40;83.50;;;;;;6089282;22;20915;-84
2021/09/22 10:43:21;;;;;;;8.07;7.33;;;16.40;85.60;;;;;;6088322;23;21134;-87
2021/09/22 10:46:17;;;;;;;6.47;5.87;;;16.50;84.70;;;;;;6089785;23;20542;-85
2021/09/22 10:49:15;;;;;;;6.20;5.70;;;16.60;83.80;;;;;;6089281;23;20639;-86
2021/09/22 10:51:52;;;;;;;5.30;4.80;;;16.50;86.10;;;;;;6086385;22;20692;-84
2021/09/22 10:54:30;;;;;;;7.77;7.07;;;16.70;84.30;;;;;;6088359;22;20592;-83
2021/09/22 10:57:03;;;;;;;6.40;5.70;;;16.80;82.60;;;;;;6084772;23;20573;-86
2021/09/22 10:59:40;;;;;;;6.50;5.90;;;16.90;82.60;;;;;;6089092;23;20620;-85
2021/09/22 11:02:39;;;;;;;7.07;6.37;;;16.80;81.70;;;;;;6087133;23;20644;-85
2021/09/22 11:05:35;;;;;;;6.70;5.07;;;16.70;79.40;;;;;;6088919;23;21154;-85
2021/09/22 11:08:18;;;;;;;5.40;4.90;;;16.80;82.60;;;;;;6088555;22;20588;-86
2021/09/22 11:10:54;;;;;;;6.37;5.50;;;17.00;80.60;;;;;;6089267;22;20588;-86
2021/09/22 11:13:36;;;;;;;5.07;4.60;;;17.20;80.30;;;;;;6089414;23;20584;-85
2021/09/22 11:16:20;;;;;;;5.63;5.13;;;17.30;79.90;;;;;;6089304;23;20560;-85
2021/09/22 11:19:05;;;;;;;6.10;5.60;;;17.20;82.70;;;;;;6089315;23;20614;-86
2021/09/22 11:21:53;;;;;;;7.47;6.77;;;17.10;80.40;;;;;;6088722;23;20590;-85
2021/09/22 11:24:30;;;;;;;7.70;7.00;;;17.40;81.20;;;;;;6086039;23;21130;-85
2021/09/22 11:27:05;;;;;;;6.30;5.70;;;17.30;81.80;;;;;;6086345;23;21396;-86
2021/09/22 11:29:41;;;;;;;7.43;6.80;;;17.50;79.10;;;;;;6088591;23;20581;-85
2021/09/22 11:32:30;;;;;;;6.70;6.10;;;17.40;81.80;;;;;;6089230;23;20587;-84
2021/09/22 11:35:16;;;;;;;6.97;6.37;;;17.30;84.60;;;;;;6088914;23;20926;-85
2021/09/22 11:37:56;;;;;;;6.70;6.10;;;17.00;83.60;;;;;;6088138;23;20594;-86
2021/09/22 11:40:37;;;;;;;6.90;6.20;;;17.00;83.80;;;;;;6088211;22;20574;-85
2021/09/22 11:43:15;;;;;;;7.37;6.77;;;16.90;81.20;;;;;;6088122;22;20639;-85
2021/09/22 11:45:53;;;;;;;6.27;5.77;;;16.90;83.80;;;;;;6088360;22;20676;-86
2021/09/22 11:48:29;;;;;;;3.90;3.60;;;17.10;84.20;;;;;;6087204;23;20554;-85
2021/09/22 11:51:14;;;;;;;4.30;3.90;;;17.10;81.40;;;;;;6086291;23;20944;-86
2021/09/22 11:53:54;;;;;;;4.17;3.80;;;17.20;83.40;;;;;;6089264;22;20685;-88
2021/09/22 11:56:32;;;;;;;5.77;4.80;;;17.50;80.50;;;;;;6087955;23;20542;-87
2021/09/22 11:59:15;;;;;;;4.50;3.43;;;17.70;79.80;;;;;;6089059;23;20626;-87
2021/09/22 12:01:55;;;;;;;4.50;4.07;;;17.90;78.50;;;;;;6089153;22;20636;-86
2021/09/22 12:04:33;;;;;;;4.43;4.03;;;18.00;78.00;;;;;;6089292;23;20541;-86
2021/09/22 12:07:29;;;;;;;4.93;4.53;;;18.10;75.30;;;;;;6087541;23;20983;-86
2021/09/22 12:10:03;;;;;;;4.60;4.20;;;18.10;78.20;;;;;;6089586;23;20623;-86
2021/09/22 12:12:46;;;;;;;6.40;4.57;;;18.10;76.60;;;;;;6089744;23;20539;-88
2021/09/22 12:15:21;;;;;;;4.63;4.23;;;18.10;76.40;;;;;;6089406;23;20586;-88
2021/09/22 12:17:58;;;;;;;4.47;4.00;;;18.20;77.10;;;;;;6089635;23;20601;-87
2021/09/22 12:20:37;;;;;;;3.47;3.27;;;17.90;76.00;;;;;;6090344;22;20915;-86
2021/09/22 12:23:26;;;;;;;3.87;3.50;;;18.10;76.60;;;;;;6090763;22;20606;-86
2021/09/22 12:26:11;;;;;;;3.70;3.40;;;18.10;78.20;;;;;;6090573;22;20590;-87
2021/09/22 12:29:09;;;;;;;3.80;3.50;;;18.10;76.00;;;;;;6090288;22;20698;-87
2021/09/22 12:31:47;;;;;;;3.90;3.60;;;18.30;76.40;;;;;;6089854;22;20598;-88
2021/09/22 12:34:28;;;;;;;4.80;4.10;;;18.40;76.40;;;;;;6090334;22;20655;-87
2021/09/22 12:37:04;;;;;;;4.50;4.10;;;18.40;76.70;;;;;;6090591;23;20586;-85
2021/09/22 12:39:52;;;;;;;7.10;3.50;;;18.60;76.60;;;;;;6090563;22;20613;-88
2021/09/22 12:42:27;;;;;;;3.13;2.93;;;18.50;75.10;;;;;;6090802;23;20669;-84
2021/09/22 12:45:03;;;;;;;2.90;2.70;;;18.50;76.00;;;;;;6090503;22;20621;-87
2021/09/22 12:47:50;;;;;;;3.20;3.00;;;18.50;75.80;;;;;;6089585;23;20558;-86
2021/09/22 12:50:33;;;;;;;3.33;3.03;;;18.50;77.10;;;;;;6090531;23;20621;-88
2021/09/22 12:53:10;;;;;;;2.97;2.77;;;18.60;77.80;;;;;;6090826;23;20555;-87
2021/09/22 12:55:50;;;;;;;3.40;3.10;;;18.50;77.50;;;;;;6090598;23;20559;-87
2021/09/22 12:58:27;;;;;;;4.03;3.73;;;18.60;77.10;;;;;;6089900;22;20598;-89
2021/09/22 13:01:01;;;;;;;6.70;4.47;;;18.80;76.30;;;;;;6089985;22;20581;-87
2021/09/22 13:03:37;;;;;;;5.40;4.07;;;19.00;76.00;;;;;;6090271;23;20582;-87
2021/09/22 13:06:14;;;;;;;4.03;3.60;;;19.00;76.40;;;;;;6090396;22;20583;-88
2021/09/22 13:09:05;;;;;;;5.33;4.00;;;18.80;76.00;;;;;;6090398;23;21056;-87
2021/09/22 13:11:47;;;;;;;5.03;4.60;;;18.80;75.30;;;;;;6090156;23;20935;-86
2021/09/22 13:14:23;;;;;;;4.20;3.73;;;18.80;75.00;;;;;;6090538;23;20873;-87
2021/09/22 13:17:04;;;;;;;4.03;3.63;;;18.70;78.00;;;;;;6088695;22;20594;-88
2021/09/22 13:19:47;;;;;;;4.10;3.70;;;18.60;77.10;;;;;;6090410;23;20614;-88
2021/09/22 13:22:20;;;;;;;5.80;4.43;;;18.70;76.80;;;;;;6083845;23;20610;-88
2021/09/22 13:24:56;;;;;;;4.70;4.30;;;18.80;75.80;;;;;;6089445;23;20637;-87
2021/09/22 13:27:26;;;;;;;5.33;4.07;;;18.70;76.80;;;;;;6086426;23;20597;-86
2021/09/22 13:30:00;;;;;;;4.43;4.10;;;18.40;79.30;;;;;;6088876;22;20594;-87
2021/09/22 13:32:37;;;;;;;4.50;4.10;;;18.40;78.70;;;;;;6089082;22;20594;-90
2021/09/22 13:35:13;;;;;;;6.30;4.17;;;18.70;77.40;;;;;;6083896;22;20591;-86
2021/09/22 13:37:53;;;;;;;4.57;4.17;;;18.80;76.70;;;;;;6089075;22;20582;-86
2021/09/22 13:40:40;;;;;;;9.10;4.90;;;18.80;79.10;;;;;;6088929;23;21068;-88
2021/09/22 13:43:17;;;;;;;4.60;4.20;;;18.80;77.00;;;;;;6089396;22;20585;-87
2021/09/22 13:45:49;;;;;;;4.23;3.93;;;18.90;76.30;;;;;;6090265;23;20527;-87
2021/09/22 13:48:32;;;;;;;4.43;4.10;;;19.00;74.80;;;;;;6088623;23;20990;-86
2021/09/22 13:51:03;;;;;;;4.50;4.10;;;19.10;78.10;;;;;;6089569;23;20912;-87
2021/09/22 13:53:50;;;;;;;4.87;4.47;;;18.90;77.50;;;;;;6088247;23;20655;-86
2021/09/22 13:56:26;;;;;;;4.23;3.93;;;19.00;79.30;;;;;;6089872;23;20589;-86